createdAt,value
2022-12-22T00:00:00.752Z,6.2
2022-12-22T00:05:00.795Z,6.4
2022-12-22T00:10:00.852Z,6.4
2022-12-22T00:15:00.943Z,6.3
2022-12-22T00:20:00.840Z,6.3
2022-12-22T00:25:00.751Z,6.4
2022-12-22T00:30:00.827Z,6.4
2022-12-22T00:35:00.743Z,6.4
2022-12-22T00:40:00.855Z,6.4
2022-12-22T00:45:00.861Z,6.4
2022-12-22T00:50:00.827Z,6.4
2022-12-22T00:55:00.816Z,6.4
2022-12-22T01:00:00.831Z,6.4
2022-12-22T01:05:00.526Z,6.5
2022-12-22T01:10:00.413Z,6.5
2022-12-22T01:15:00.795Z,6.7
2022-12-22T01:20:00.795Z,6.7
2022-12-22T01:25:00.796Z,6.7
2022-12-22T01:30:00.785Z,6.7
2022-12-22T01:35:00.462Z,6.7
2022-12-22T01:40:00.821Z,6.8
2022-12-22T01:45:00.794Z,6.7
2022-12-22T01:50:00.763Z,6.8
2022-12-22T01:55:00.752Z,6.9
2022-12-22T02:00:00.905Z,6.8
2022-12-22T02:05:00.740Z,7
2022-12-22T02:10:00.797Z,7.1
2022-12-22T02:15:00.861Z,7.2
2022-12-22T02:20:00.807Z,7.2
2022-12-22T02:25:00.816Z,7.4
2022-12-22T02:30:00.763Z,7.3
2022-12-22T02:35:00.835Z,7.3
2022-12-22T02:40:00.820Z,7.4
2022-12-22T02:45:00.844Z,7.3
2022-12-22T02:50:00.834Z,7.3
2022-12-22T02:55:00.833Z,7.3
2022-12-22T03:00:00.861Z,7.2
2022-12-22T03:05:00.792Z,7.2
2022-12-22T03:10:00.816Z,7.2
2022-12-22T03:15:00.761Z,7.1
2022-12-22T03:20:00.817Z,7
2022-12-22T03:25:00.799Z,7.1
2022-12-22T03:30:00.764Z,7.1
2022-12-22T03:35:00.814Z,7.2
2022-12-22T03:40:00.788Z,7
2022-12-22T03:45:00.775Z,7
2022-12-22T03:50:00.838Z,7
2022-12-22T03:55:00.842Z,7
2022-12-22T04:00:00.789Z,6.9
2022-12-22T04:05:00.780Z,6.8
2022-12-22T04:10:00.797Z,6.9
2022-12-22T04:15:01.586Z,6.8
2022-12-22T04:20:00.759Z,6.8
2022-12-22T04:25:00.768Z,6.9
2022-12-22T04:30:00.743Z,6.9
2022-12-22T04:35:00.772Z,6.9
2022-12-22T04:40:00.765Z,6.9
2022-12-22T04:45:00.764Z,6.9
2022-12-22T04:50:00.755Z,6.9
2022-12-22T04:55:00.784Z,6.9
2022-12-22T05:00:00.777Z,6.8
2022-12-22T05:05:00.783Z,6.7
2022-12-22T05:10:00.794Z,6.7
2022-12-22T05:15:00.786Z,6.6
2022-12-22T05:20:00.763Z,6.6
2022-12-22T05:25:00.760Z,6.5
2022-12-22T05:30:00.772Z,6.5
2022-12-22T05:35:00.719Z,6.7
2022-12-22T05:40:00.811Z,7
2022-12-22T05:45:00.776Z,7.2
2022-12-22T05:50:00.763Z,7.3
2022-12-22T05:55:00.765Z,7.3
2022-12-22T06:00:00.765Z,7.4
2022-12-22T06:05:00.787Z,7.3
2022-12-22T06:10:03.912Z,7.3
2022-12-22T06:15:00.724Z,7.4
2022-12-22T06:20:00.759Z,7.3
2022-12-22T06:25:00.739Z,7.3
2022-12-22T06:30:00.779Z,7.2
2022-12-22T06:35:00.835Z,7.1
2022-12-22T06:40:00.758Z,7.2
2022-12-22T06:45:00.742Z,7.1
2022-12-22T06:50:00.714Z,7.2
2022-12-22T06:55:00.738Z,7.2
2022-12-22T07:00:00.804Z,7.2
2022-12-22T07:05:00.757Z,7.2
2022-12-22T07:10:00.740Z,7.1
2022-12-22T07:15:00.790Z,7.2
2022-12-22T07:20:00.779Z,7.2
2022-12-22T07:25:00.751Z,7.2
2022-12-22T07:30:00.788Z,7.2
2022-12-22T07:35:05.124Z,7.1
2022-12-22T07:40:00.728Z,7.1
2022-12-22T07:45:00.766Z,7.1
2022-12-22T07:50:00.758Z,7.1
2022-12-22T07:55:00.806Z,7.1
2022-12-22T08:00:00.857Z,7.1
2022-12-22T08:05:00.771Z,7.1
2022-12-22T08:10:00.743Z,7.1
2022-12-22T08:15:00.746Z,7.1
2022-12-22T08:20:00.729Z,7.2
2022-12-22T08:25:00.716Z,7.2
2022-12-22T08:30:00.749Z,7.1
2022-12-22T08:35:00.719Z,7.1
2022-12-22T08:40:00.782Z,7.1
2022-12-22T08:45:00.729Z,7.2
2022-12-22T08:50:00.745Z,7.2
2022-12-22T08:55:00.766Z,7.1
2022-12-22T09:00:00.693Z,7.1
2022-12-22T09:05:00.738Z,7.1
2022-12-22T09:10:00.760Z,7.1
2022-12-22T09:15:00.715Z,7.1
2022-12-22T09:20:00.740Z,7.1
2022-12-22T09:25:00.745Z,7.2
2022-12-22T09:30:00.750Z,7
2022-12-22T09:35:00.745Z,6.9
2022-12-22T09:40:00.728Z,7
2022-12-22T09:45:00.793Z,7
2022-12-22T09:50:00.466Z,7
2022-12-22T09:55:00.413Z,7.1
2022-12-22T10:00:00.704Z,7.1
2022-12-22T10:05:00.674Z,7.1
2022-12-22T10:10:00.833Z,7.2
2022-12-22T10:15:00.729Z,7.1
2022-12-22T10:20:00.850Z,7
2022-12-22T10:25:00.701Z,7.2
2022-12-22T10:30:00.955Z,7.3
2022-12-22T10:35:00.933Z,7.3
2022-12-22T10:40:00.703Z,7.4
2022-12-22T10:45:00.721Z,7.2
2022-12-22T10:55:00.692Z,7.4
2022-12-22T11:00:00.699Z,7.5
2022-12-22T11:05:00.696Z,7.5
2022-12-22T11:10:00.718Z,7.6
2022-12-22T11:15:00.460Z,7.4
2022-12-22T11:25:00.703Z,7.2
2022-12-22T11:30:00.740Z,7.2
2022-12-22T11:35:00.708Z,7.1
2022-12-22T11:40:00.700Z,7.1
2022-12-22T11:45:00.721Z,7.1
2022-12-22T11:50:46.166Z,6.9
2022-12-22T11:55:00.751Z,7
2022-12-22T12:00:00.720Z,6.9
2022-12-22T12:05:00.720Z,6.9
2022-12-22T12:10:00.708Z,6.9
2022-12-22T12:15:00.786Z,6.9
2022-12-22T12:20:00.686Z,7
2022-12-22T12:25:00.723Z,7.1
2022-12-22T12:30:36.085Z,7.2
2022-12-22T12:35:00.535Z,7.3
2022-12-22T12:40:00.756Z,7.3
2022-12-22T12:45:00.712Z,7.3
2022-12-22T12:50:00.721Z,7.3
2022-12-22T12:55:00.757Z,7.4
2022-12-22T13:00:00.755Z,7.3
2022-12-22T13:05:00.831Z,7.3
2022-12-22T13:10:00.798Z,7.3
2022-12-22T13:15:00.691Z,7.2
2022-12-22T13:20:00.764Z,7.3
2022-12-22T13:25:00.702Z,7.3
2022-12-22T13:30:00.786Z,7.2
2022-12-22T13:35:31.316Z,7.3
2022-12-22T13:40:00.748Z,7.3
2022-12-22T13:45:00.735Z,7.4
2022-12-22T13:50:08.637Z,7.3
2022-12-22T13:55:00.698Z,7.3
2022-12-22T14:00:00.785Z,7.3
2022-12-22T14:05:03.450Z,7.3
2022-12-22T14:10:00.737Z,7.3
2022-12-22T14:15:00.699Z,7.2
2022-12-22T14:20:00.796Z,7.2
2022-12-22T14:25:00.725Z,7.2
2022-12-22T14:30:00.792Z,7.2
2022-12-22T14:35:00.488Z,7.2
2022-12-22T14:40:00.722Z,7.1
2022-12-22T14:45:00.714Z,7.1
2022-12-22T14:50:00.900Z,7.1
2022-12-22T14:55:00.685Z,7.1
2022-12-22T15:00:00.803Z,7
2022-12-22T15:05:00.724Z,7.1
2022-12-22T15:10:16.781Z,7
2022-12-22T15:15:00.735Z,7
2022-12-22T15:20:00.735Z,7
2022-12-22T15:25:00.733Z,7
2022-12-22T15:30:00.694Z,7
2022-12-22T15:35:00.737Z,6.9
2022-12-22T15:40:00.728Z,6.9
2022-12-22T15:45:00.867Z,6.9
2022-12-22T15:50:00.719Z,6.9
2022-12-22T15:55:00.714Z,6.9
2022-12-22T16:00:00.712Z,6.9
2022-12-22T16:05:00.714Z,6.8
2022-12-22T16:10:00.680Z,6.9
2022-12-22T16:15:00.851Z,6.9
2022-12-22T16:20:00.686Z,7
2022-12-22T16:25:00.689Z,7
2022-12-22T16:30:00.702Z,7
2022-12-22T16:35:00.458Z,7
2022-12-22T16:40:00.740Z,7
2022-12-22T16:45:00.822Z,7
2022-12-22T16:50:00.481Z,7
2022-12-22T16:55:00.818Z,7
2022-12-22T17:00:00.735Z,7
2022-12-22T17:05:00.471Z,7
2022-12-22T17:10:00.710Z,7
2022-12-22T17:15:00.494Z,7.1
2022-12-22T17:20:00.431Z,7.1
2022-12-22T17:25:00.689Z,7
2022-12-22T17:30:00.735Z,7.1
2022-12-22T17:35:00.730Z,7.1
2022-12-22T17:40:00.893Z,7.1
2022-12-22T17:45:00.857Z,7.1
2022-12-22T17:50:00.802Z,7.1
2022-12-22T17:55:00.771Z,7.1
2022-12-22T18:00:00.755Z,7
2022-12-22T18:05:00.774Z,7
2022-12-22T18:10:00.760Z,7.1
2022-12-22T18:15:00.831Z,7.1
2022-12-22T18:20:00.775Z,7
2022-12-22T18:25:00.767Z,7.1
2022-12-22T18:30:00.707Z,7.1
2022-12-22T18:35:00.720Z,7.2
2022-12-22T18:40:00.699Z,7.2
2022-12-22T18:45:00.704Z,7.3
2022-12-22T18:50:00.706Z,7.3
2022-12-22T18:55:00.686Z,7.3
2022-12-22T19:00:00.710Z,7.4
2022-12-22T19:05:00.724Z,7.4
2022-12-22T19:10:00.783Z,7.3
2022-12-22T19:15:00.701Z,7.3
2022-12-22T19:20:00.737Z,7.4
2022-12-22T19:25:00.783Z,7.4
2022-12-22T19:30:03.857Z,7.4
2022-12-22T19:35:00.702Z,7.5
2022-12-22T19:40:00.701Z,7.5
2022-12-22T19:45:04.102Z,7.4
2022-12-22T19:50:00.751Z,7.4
2022-12-22T19:55:00.763Z,7.4
2022-12-22T20:00:00.781Z,7.3
2022-12-22T20:05:00.772Z,7.4
2022-12-22T20:10:00.659Z,7.3
2022-12-22T20:15:00.736Z,7.3
2022-12-22T20:20:00.718Z,7.4
2022-12-22T20:25:00.729Z,7.4
2022-12-22T20:30:00.735Z,7.4
2022-12-22T20:35:00.672Z,7.4
2022-12-22T20:40:00.760Z,7.4
2022-12-22T20:45:03.529Z,7.4
2022-12-22T20:50:00.743Z,7.5
2022-12-22T20:55:00.717Z,7.5
2022-12-22T21:00:00.704Z,7.4
2022-12-22T21:05:00.759Z,7.4
2022-12-22T21:10:00.761Z,7.4
2022-12-22T21:15:00.694Z,7.3
2022-12-22T21:20:00.699Z,7.3
2022-12-22T21:25:00.743Z,7.3
2022-12-22T21:30:00.725Z,7.3
2022-12-22T21:35:06.009Z,7.4
2022-12-22T21:40:00.740Z,7.4
2022-12-22T21:45:00.739Z,7.4
2022-12-22T21:50:00.647Z,7.4
2022-12-22T21:55:00.702Z,7.4
2022-12-22T22:00:00.773Z,7.4
2022-12-22T22:05:00.716Z,7.3
2022-12-22T22:10:00.803Z,7.3
2022-12-22T22:15:00.787Z,7.3
2022-12-22T22:20:00.762Z,7.4
2022-12-22T22:25:00.724Z,7.3
2022-12-22T22:30:00.746Z,7.3
2022-12-22T22:35:00.843Z,7.3
2022-12-22T22:40:00.687Z,7.3
2022-12-22T22:45:00.729Z,7.3
2022-12-22T22:50:00.702Z,7.4
2022-12-22T22:55:00.817Z,7.4
2022-12-22T23:00:00.499Z,7.3
2022-12-22T23:05:00.514Z,7.3
2022-12-22T23:10:00.723Z,7.3
2022-12-22T23:15:00.734Z,7.3
2022-12-22T23:20:00.692Z,7.3
2022-12-22T23:25:00.438Z,7.3
2022-12-22T23:30:00.783Z,7.3
2022-12-22T23:35:00.804Z,7.3
2022-12-22T23:40:17.538Z,7.3
2022-12-22T23:45:00.749Z,7.3
2022-12-22T23:50:00.737Z,7.4
2022-12-22T23:55:00.715Z,7.4
